Terminal Aerodrome Forecast
Issued by NWS Upton, NY

Current Version | Previous Version | Text Only | Print | Product List | Glossary On
Versions: 1 2 3 4 5 6 7 8 9 10 11 12 13 14 15 16 17 18 19 20 21 22 23 24 25 26 27 28 29
000
FTUS41 KOKX 272339
TAFLGA
TAF
KLGA 272339Z 2800/2824 18014G20KT P6SM -SHRA FEW015 BKN050 BKN120
     FM280100 19010G16KT P6SM -SHRA SCT015 BKN050 BKN250
     FM280300 19010KT P6SM SCT015 BKN050 BKN250
      TEMPO 2803/2805 BKN015
     FM280500 19008KT 5SM -SHRA SCT007 BKN015
     FM281400 18009KT 5SM BR VCSH SCT007 BKN015
     FM281700 17012KT P6SM VCSH SCT007 BKN015 PROB30 2820/2823 4SM
      TSRA BKN025CB=

USA.gov is the U.S. government's official web portal to all federal, state and local government web resources and services.